createdAt,value
2019-01-21T00:00:42.874Z,43.93
2019-01-21T00:03:14.702Z,42.37
2019-01-21T00:05:43.642Z,44.80
2019-01-21T00:08:13.103Z,49.37
2019-01-21T00:10:42.504Z,40.70
2019-01-21T00:13:11.960Z,42.10
2019-01-21T00:15:41.481Z,43.00
2019-01-21T00:18:10.893Z,47.77
2019-01-21T00:20:40.332Z,41.53
2019-01-21T00:23:09.693Z,46.57
2019-01-21T00:25:39.196Z,43.97
2019-01-21T00:28:08.751Z,47.60
2019-01-21T00:30:38.115Z,46.67
2019-01-21T00:33:07.545Z,43.47
2019-01-21T00:35:36.931Z,47.93
2019-01-21T00:38:06.385Z,45.63
2019-01-21T00:40:35.760Z,43.93
2019-01-21T00:43:05.289Z,40.00
2019-01-21T00:45:34.657Z,48.33
2019-01-21T00:48:04.167Z,45.97
2019-01-21T00:50:33.549Z,44.80
2019-01-21T00:53:02.931Z,41.10
2019-01-21T00:55:32.441Z,39.80
2019-01-21T00:58:01.836Z,43.27
2019-01-21T01:00:31.374Z,44.97
2019-01-21T01:03:00.848Z,46.97
2019-01-21T01:05:30.377Z,44.57
2019-01-21T01:07:59.821Z,47.80
2019-01-21T01:10:29.207Z,44.60
2019-01-21T01:12:58.743Z,45.73
2019-01-21T01:15:28.198Z,51.27
2019-01-21T01:17:57.607Z,45.50
2019-01-21T01:20:27.045Z,42.17
2019-01-21T01:22:56.420Z,45.10
2019-01-21T01:25:25.781Z,43.23
2019-01-21T01:27:55.240Z,46.53
2019-01-21T01:30:24.611Z,46.23
2019-01-21T01:32:54.062Z,50.17
2019-01-21T01:35:23.570Z,43.70
2019-01-21T01:37:53.037Z,40.60
2019-01-21T01:40:22.493Z,39.63
2019-01-21T01:42:51.949Z,42.20
2019-01-21T01:45:23.520Z,43.93
2019-01-21T01:48:02.949Z,45.63
2019-01-21T01:50:32.703Z,44.77
2019-01-21T01:53:02.247Z,45.23
2019-01-21T01:55:32.728Z,44.23
2019-01-21T01:58:06.568Z,41.47
2019-01-21T02:00:36.933Z,45.10
2019-01-21T02:03:06.502Z,41.53
2019-01-21T02:05:35.901Z,42.93
2019-01-21T02:08:05.514Z,45.73
2019-01-21T02:10:34.953Z,42.37
2019-01-21T02:13:04.861Z,50.37
2019-01-21T02:15:34.337Z,45.63
2019-01-21T02:18:03.918Z,48.17
2019-01-21T02:20:33.367Z,45.03
2019-01-21T02:23:06.267Z,47.57
2019-01-21T02:25:50.086Z,47.93
2019-01-21T02:28:47.460Z,49.57
2019-01-21T02:31:55.250Z,45.33
2019-01-21T02:34:56.106Z,48.23
2019-01-21T02:38:05.353Z,43.67
2019-01-21T02:40:52.867Z,43.40
2019-01-21T02:43:57.087Z,44.00
2019-01-21T02:46:50.601Z,44.93
2019-01-21T02:50:00.115Z,45.23
2019-01-21T02:53:12.152Z,43.33
2019-01-21T02:56:13.848Z,41.00
2019-01-21T02:59:07.329Z,40.93
2019-01-21T03:02:18.035Z,42.97
2019-01-21T03:05:18.096Z,41.57
2019-01-21T03:08:30.295Z,40.70
2019-01-21T03:11:37.074Z,38.30
2019-01-21T03:14:18.932Z,40.93
2019-01-21T03:17:28.310Z,40.97
2019-01-21T03:20:12.654Z,39.70
2019-01-21T03:23:29.961Z,41.33
2019-01-21T03:26:36.538Z,40.83
2019-01-21T03:29:26.599Z,39.57
2019-01-21T03:32:35.644Z,37.03
2019-01-21T03:35:27.460Z,37.53
2019-01-21T03:38:33.738Z,36.50
2019-01-21T03:41:41.183Z,34.33
2019-01-21T03:44:49.095Z,33.50
2019-01-21T03:47:41.564Z,39.00
2019-01-21T03:50:38.488Z,34.70
2019-01-21T03:53:55.316Z,33.10
2019-01-21T03:56:44.486Z,36.80
2019-01-21T03:59:38.535Z,32.07
2019-01-21T04:02:56.685Z,36.07
2019-01-21T04:06:04.210Z,33.93
2019-01-21T04:09:16.149Z,33.80
2019-01-21T04:12:45.310Z,33.17
2019-01-21T04:15:50.301Z,33.37
2019-01-21T04:18:53.016Z,33.97
2019-01-21T04:22:24.871Z,34.27
2019-01-21T04:25:44.066Z,34.40
2019-01-21T04:28:31.451Z,33.77
2019-01-21T04:31:27.316Z,33.83
2019-01-21T04:34:34.055Z,34.00
2019-01-21T04:37:29.471Z,36.00
2019-01-21T04:40:27.597Z,31.87
2019-01-21T04:43:31.268Z,32.10
2019-01-21T04:46:41.344Z,34.63
2019-01-21T04:49:51.284Z,34.17
2019-01-21T04:52:42.237Z,39.50
2019-01-21T04:55:51.196Z,36.90
2019-01-21T04:58:36.111Z,31.90
2019-01-21T05:01:45.454Z,36.00
2019-01-21T05:04:51.993Z,32.43
2019-01-21T05:07:37.346Z,34.77
2019-01-21T05:10:37.071Z,39.87
2019-01-21T05:13:55.029Z,39.87
2019-01-21T05:16:34.250Z,35.33
2019-01-21T05:19:31.796Z,39.43
2019-01-21T05:22:35.838Z,38.67
2019-01-21T05:25:50.994Z,36.63
2019-01-21T05:28:55.982Z,34.20
2019-01-21T05:32:19.028Z,34.97
2019-01-21T05:35:28.455Z,37.90
2019-01-21T05:38:16.924Z,41.03
2019-01-21T05:41:24.371Z,42.07
2019-01-21T05:44:26.562Z,44.43
2019-01-21T05:47:17.526Z,38.17
2019-01-21T05:50:14.616Z,41.17
2019-01-21T05:52:57.131Z,41.07
2019-01-21T05:56:02.573Z,40.00
2019-01-21T05:59:07.585Z,40.93
2019-01-21T06:02:03.490Z,43.73
2019-01-21T06:05:08.478Z,43.13
2019-01-21T06:08:22.601Z,43.43
2019-01-21T06:11:24.855Z,43.37
2019-01-21T06:14:20.670Z,43.37
2019-01-21T06:17:20.139Z,44.00
2019-01-21T06:20:42.272Z,42.00
2019-01-21T06:23:44.947Z,42.37
2019-01-21T06:26:50.150Z,47.13
2019-01-21T06:29:41.216Z,42.97
2019-01-21T06:32:27.222Z,44.80
2019-01-21T06:35:24.780Z,47.23
2019-01-21T06:38:19.670Z,49.10
2019-01-21T06:41:26.006Z,46.67
2019-01-21T06:44:25.553Z,48.03
2019-01-21T06:47:30.834Z,45.13
2019-01-21T06:50:22.723Z,51.10
2019-01-21T06:53:16.918Z,47.07
2019-01-21T06:56:19.179Z,45.03
2019-01-21T06:59:42.282Z,46.33
2019-01-21T07:02:25.002Z,43.57
2019-01-21T07:05:27.759Z,47.67
2019-01-21T07:08:22.002Z,40.90
2019-01-21T07:11:19.240Z,44.80
2019-01-21T07:14:16.033Z,44.20
2019-01-21T07:17:14.534Z,45.67
2019-01-21T07:20:09.393Z,41.73
2019-01-21T07:23:17.199Z,39.87
2019-01-21T07:26:17.191Z,43.83
2019-01-21T07:29:40.018Z,39.77
2019-01-21T07:32:43.999Z,41.67
2019-01-21T07:35:47.529Z,42.27
2019-01-21T07:39:04.251Z,38.77
2019-01-21T07:41:49.622Z,46.77
2019-01-21T07:45:02.034Z,45.73
2019-01-21T07:47:44.662Z,34.40
2019-01-21T07:50:38.811Z,34.63
2019-01-21T07:53:45.452Z,34.70
2019-01-21T07:56:51.643Z,47.00
2019-01-21T07:59:52.732Z,45.47
2019-01-21T08:02:46.626Z,47.77
2019-01-21T08:06:01.945Z,43.67
2019-01-21T08:08:57.125Z,46.47
2019-01-21T08:11:37.161Z,48.13
2019-01-21T08:14:37.735Z,44.40
2019-01-21T08:17:48.419Z,43.37
2019-01-21T08:20:22.890Z,43.83
2019-01-21T08:23:30.225Z,44.53
2019-01-21T08:26:31.448Z,46.97
2019-01-21T08:29:24.489Z,48.30
2019-01-21T08:32:10.247Z,45.93
2019-01-21T08:34:49.037Z,51.30
2019-01-21T08:37:53.309Z,43.83
2019-01-21T08:40:57.810Z,41.93
2019-01-21T08:44:02.724Z,43.40
2019-01-21T08:47:28.525Z,50.07
2019-01-21T08:50:16.498Z,43.80
2019-01-21T08:53:18.933Z,42.63
2019-01-21T08:56:25.618Z,41.40
2019-01-21T08:59:29.057Z,42.27
2019-01-21T09:02:17.513Z,43.50
2019-01-21T09:05:11.490Z,41.03
2019-01-21T09:08:24.966Z,36.77
2019-01-21T09:11:47.665Z,37.47
2019-01-21T09:14:39.759Z,40.47
2019-01-21T09:17:33.164Z,36.17
2019-01-21T09:20:23.393Z,40.77
2019-01-21T09:23:06.141Z,37.87
2019-01-21T09:25:58.343Z,36.43
2019-01-21T09:28:59.905Z,35.97
2019-01-21T09:31:53.054Z,36.87
2019-01-21T09:34:51.720Z,36.87
2019-01-21T09:38:02.860Z,30.93
2019-01-21T09:41:09.246Z,29.40
2019-01-21T09:44:00.285Z,28.33
2019-01-21T09:46:47.580Z,29.27
2019-01-21T09:49:15.652Z,28.03
2019-01-21T09:51:57.617Z,28.87
2019-01-21T09:54:27.307Z,29.87
2019-01-21T09:56:57.999Z,29.13
2019-01-21T09:59:27.365Z,29.63
2019-01-21T10:01:57.973Z,33.17
2019-01-21T10:04:37.242Z,24.57
2019-01-21T10:07:49.019Z,23.93
2019-01-21T10:10:51.516Z,27.07
2019-01-21T10:13:42.106Z,29.73
2019-01-21T10:16:21.739Z,27.57
2019-01-21T10:19:50.341Z,26.07
2019-01-21T10:22:59.443Z,25.07
2019-01-21T10:26:06.151Z,27.33
2019-01-21T10:29:13.518Z,29.50
2019-01-21T10:32:27.163Z,31.40
2019-01-21T10:35:27.515Z,29.83
2019-01-21T10:38:33.383Z,29.27
2019-01-21T10:41:27.056Z,27.30
2019-01-21T10:44:17.414Z,32.30
2019-01-21T10:47:29.928Z,31.40
2019-01-21T10:50:43.786Z,28.57
2019-01-21T10:53:28.785Z,26.33
2019-01-21T10:56:29.668Z,34.50
2019-01-21T10:59:41.956Z,31.17
2019-01-21T11:02:40.928Z,30.00
2019-01-21T11:05:20.098Z,31.80
2019-01-21T11:08:32.020Z,29.90
2019-01-21T11:11:55.191Z,31.50
2019-01-21T11:15:11.259Z,30.57
2019-01-21T11:18:21.301Z,33.33
2019-01-21T11:21:17.942Z,28.63
2019-01-21T11:24:16.993Z,28.60
2019-01-21T11:27:30.532Z,28.47
2019-01-21T11:30:17.552Z,29.47
2019-01-21T11:33:18.924Z,24.43
2019-01-21T11:36:11.825Z,31.23
2019-01-21T11:39:05.142Z,29.70
2019-01-21T11:41:46.030Z,38.47
2019-01-21T11:44:47.423Z,27.60
2019-01-21T11:47:44.641Z,30.23
2019-01-21T11:50:36.424Z,30.30
2019-01-21T11:53:33.540Z,29.03
2019-01-21T11:56:36.753Z,32.30
2019-01-21T11:59:43.260Z,27.60
2019-01-21T12:02:31.919Z,30.10
2019-01-21T12:05:11.918Z,32.20
2019-01-21T12:08:16.595Z,26.83
2019-01-21T12:11:12.221Z,26.57
2019-01-21T12:14:21.891Z,30.07
2019-01-21T12:17:53.900Z,28.77
2019-01-21T12:20:55.963Z,26.73
2019-01-21T12:23:53.832Z,30.13
2019-01-21T12:26:35.854Z,32.53
2019-01-21T12:29:40.908Z,27.17
2019-01-21T12:32:47.068Z,30.80
2019-01-21T12:35:39.818Z,26.80
2019-01-21T12:38:45.888Z,25.27
2019-01-21T12:41:28.107Z,31.17
2019-01-21T12:44:46.322Z,29.73
2019-01-21T12:47:28.491Z,29.17
2019-01-21T12:50:37.114Z,32.20
2019-01-21T12:53:38.562Z,30.87
2019-01-21T12:56:38.844Z,27.13
2019-01-21T12:59:21.616Z,27.47
2019-01-21T13:02:14.273Z,33.60
2019-01-21T13:05:20.944Z,28.00
2019-01-21T13:08:27.461Z,35.27
2019-01-21T13:11:06.098Z,30.97
2019-01-21T13:14:15.256Z,30.20
2019-01-21T13:17:24.590Z,29.93
2019-01-21T13:20:30.645Z,32.60
2019-01-21T13:23:23.360Z,26.07
2019-01-21T13:26:39.255Z,27.13
2019-01-21T13:29:38.557Z,30.50
2019-01-21T13:32:40.393Z,33.03
2019-01-21T13:36:06.116Z,29.00
2019-01-21T13:39:18.483Z,30.73
2019-01-21T13:42:25.068Z,27.07
2019-01-21T13:45:21.714Z,29.73
2019-01-21T13:48:04.112Z,28.90
2019-01-21T13:51:00.830Z,26.13
2019-01-21T13:54:07.311Z,28.17
2019-01-21T13:56:51.243Z,25.37
2019-01-21T13:59:56.545Z,28.50
2019-01-21T14:02:46.496Z,29.97
2019-01-21T14:05:47.816Z,29.03
2019-01-21T14:08:51.095Z,26.97
2019-01-21T14:11:52.684Z,26.97
2019-01-21T14:14:35.409Z,39.37
2019-01-21T14:17:44.956Z,28.50
2019-01-21T14:20:35.684Z,29.80
2019-01-21T14:23:41.884Z,41.67
2019-01-21T14:26:33.419Z,28.90
2019-01-21T14:29:30.879Z,26.93
2019-01-21T14:33:02.668Z,28.20
2019-01-21T14:36:00.515Z,29.23
2019-01-21T14:39:10.619Z,28.30
2019-01-21T14:42:17.692Z,28.10
2019-01-21T14:45:09.416Z,28.23
2019-01-21T14:48:23.823Z,32.10
2019-01-21T14:51:33.579Z,27.60
2019-01-21T14:54:16.157Z,31.20
2019-01-21T14:57:00.841Z,27.67
2019-01-21T15:00:11.558Z,28.73
2019-01-21T15:02:54.188Z,28.67
2019-01-21T15:05:56.629Z,36.70
2019-01-21T15:08:54.084Z,29.10
2019-01-21T15:11:47.039Z,28.37
2019-01-21T15:14:38.981Z,27.97
2019-01-21T15:17:45.271Z,30.03
2019-01-21T15:20:21.829Z,32.13
2019-01-21T15:23:04.387Z,27.97
2019-01-21T15:25:57.592Z,27.10
2019-01-21T15:28:54.895Z,30.67
2019-01-21T15:32:11.635Z,33.80
2019-01-21T15:35:20.640Z,28.93
2019-01-21T15:38:22.761Z,37.10
2019-01-21T15:41:44.258Z,31.73
2019-01-21T15:45:02.607Z,30.50
2019-01-21T15:47:41.933Z,30.03
2019-01-21T15:50:35.995Z,36.07
2019-01-21T15:53:41.326Z,38.00
2019-01-21T15:56:40.668Z,31.60
2019-01-21T15:59:35.856Z,32.47
2019-01-21T16:02:15.041Z,32.23
2019-01-21T16:04:57.765Z,30.20
2019-01-21T16:07:36.300Z,33.27
2019-01-21T16:10:41.330Z,37.90
2019-01-21T16:13:39.013Z,36.83
2019-01-21T16:16:42.706Z,34.90
2019-01-21T16:19:34.762Z,35.73
2019-01-21T16:22:34.604Z,40.00
2019-01-21T16:25:27.101Z,36.87
2019-01-21T16:28:29.976Z,43.87
2019-01-21T16:31:41.890Z,41.43
2019-01-21T16:34:47.127Z,37.53
2019-01-21T16:37:38.970Z,36.80
2019-01-21T16:40:51.893Z,43.10
2019-01-21T16:43:21.358Z,40.00
2019-01-21T16:45:50.763Z,44.50
2019-01-21T16:48:20.187Z,44.60
2019-01-21T16:50:49.532Z,37.50
2019-01-21T16:53:18.885Z,39.90
2019-01-21T16:55:48.252Z,36.60
2019-01-21T16:58:17.687Z,39.33
2019-01-21T17:00:47.012Z,39.03
2019-01-21T17:03:16.347Z,42.53
2019-01-21T17:05:45.768Z,34.10
2019-01-21T17:08:15.121Z,41.10
2019-01-21T17:10:44.614Z,42.23
2019-01-21T17:13:14.262Z,36.93
2019-01-21T17:15:43.726Z,40.10
2019-01-21T17:18:13.182Z,44.20
2019-01-21T17:20:42.533Z,43.33
2019-01-21T17:23:12.015Z,39.33
2019-01-21T17:25:41.440Z,40.40
2019-01-21T17:28:11.102Z,43.20
2019-01-21T17:30:40.526Z,45.23
2019-01-21T17:33:09.925Z,41.70
2019-01-21T17:35:39.282Z,44.50
2019-01-21T17:38:08.693Z,41.27
2019-01-21T17:40:38.120Z,41.10
2019-01-21T17:43:07.472Z,42.23
2019-01-21T17:45:36.845Z,41.67
2019-01-21T17:48:06.260Z,41.57
2019-01-21T17:50:35.622Z,43.50
2019-01-21T17:53:05.045Z,40.93
2019-01-21T17:55:34.387Z,42.13
2019-01-21T17:58:03.971Z,46.10
2019-01-21T18:00:34.222Z,41.90
2019-01-21T18:03:03.510Z,43.30
2019-01-21T18:05:32.956Z,40.07
2019-01-21T18:08:02.390Z,45.33
2019-01-21T18:10:31.719Z,46.83
2019-01-21T18:13:01.138Z,48.80
2019-01-21T18:15:30.575Z,45.93
2019-01-21T18:17:59.943Z,50.07
2019-01-21T18:20:29.407Z,46.83
2019-01-21T18:22:58.828Z,42.53
2019-01-21T18:25:28.211Z,45.57
2019-01-21T18:27:57.618Z,46.23
2019-01-21T18:30:27.750Z,48.23
2019-01-21T18:32:57.182Z,47.27
2019-01-21T18:35:26.732Z,47.97
2019-01-21T18:37:56.175Z,53.07
2019-01-21T18:40:25.662Z,50.27
2019-01-21T18:42:55.040Z,57.60
2019-01-21T18:45:26.522Z,52.10
2019-01-21T18:47:55.929Z,57.97
2019-01-21T18:50:25.447Z,57.60
2019-01-21T18:52:55.115Z,53.77
2019-01-21T18:55:24.483Z,56.70
2019-01-21T18:57:55.984Z,58.90
2019-01-21T19:00:25.977Z,55.47
2019-01-21T19:02:55.548Z,54.67
2019-01-21T19:05:25.030Z,54.13
2019-01-21T19:07:54.363Z,58.20
2019-01-21T19:10:23.794Z,53.70
2019-01-21T19:12:53.212Z,53.27
2019-01-21T19:15:25.111Z,53.13
2019-01-21T19:17:54.473Z,56.37
2019-01-21T19:20:23.824Z,50.80
2019-01-21T19:22:53.165Z,51.93
2019-01-21T19:25:22.539Z,51.67
2019-01-21T19:27:52.086Z,54.67
2019-01-21T19:30:23.748Z,58.43
2019-01-21T19:32:53.155Z,60.53
2019-01-21T19:35:28.208Z,56.13
2019-01-21T19:37:57.620Z,56.80
2019-01-21T19:40:27.060Z,53.57
2019-01-21T19:42:56.432Z,59.03
2019-01-21T19:45:25.868Z,54.10
2019-01-21T19:47:55.291Z,59.20
2019-01-21T19:50:24.804Z,59.80
2019-01-21T19:52:54.313Z,55.30
2019-01-21T19:55:43.381Z,59.13
2019-01-21T19:58:13.146Z,56.30
2019-01-21T20:00:42.613Z,70.60
2019-01-21T20:03:12.011Z,59.53
2019-01-21T20:05:41.370Z,54.00
2019-01-21T20:08:10.702Z,57.13
2019-01-21T20:10:40.062Z,60.20
2019-01-21T20:13:09.481Z,57.40
2019-01-21T20:15:38.826Z,54.53
2019-01-21T20:18:08.254Z,58.97
2019-01-21T20:20:39.808Z,55.90
2019-01-21T20:23:09.409Z,60.87
2019-01-21T20:25:38.734Z,60.00
2019-01-21T20:28:08.275Z,69.70
2019-01-21T20:30:37.657Z,59.50
2019-01-21T20:33:07.133Z,58.73
2019-01-21T20:35:36.480Z,57.60
2019-01-21T20:38:05.925Z,55.93
2019-01-21T20:40:35.318Z,55.80
2019-01-21T20:43:04.885Z,60.63
2019-01-21T20:45:34.353Z,57.40
2019-01-21T20:48:03.691Z,59.77
2019-01-21T20:50:33.436Z,57.80
2019-01-21T20:53:02.929Z,60.83
2019-01-21T20:55:32.362Z,54.40
2019-01-21T20:58:01.730Z,58.47
2019-01-21T21:00:31.289Z,60.00
2019-01-21T21:03:00.765Z,55.33
2019-01-21T21:05:30.266Z,57.07
2019-01-21T21:07:59.615Z,62.40
2019-01-21T21:10:28.990Z,58.90
2019-01-21T21:12:58.325Z,62.50
2019-01-21T21:15:30.096Z,62.83
2019-01-21T21:17:59.557Z,57.47
2019-01-21T21:20:28.948Z,66.73
2019-01-21T21:22:58.314Z,57.10
2019-01-21T21:25:27.675Z,60.77
2019-01-21T21:27:57.080Z,68.27
2019-01-21T21:30:31.284Z,62.80
2019-01-21T21:33:00.765Z,67.17
2019-01-21T21:35:30.254Z,59.03
2019-01-21T21:37:59.650Z,60.50
2019-01-21T21:40:29.062Z,65.23
2019-01-21T21:42:58.409Z,62.80
2019-01-21T21:45:27.989Z,63.03
2019-01-21T21:48:00.971Z,66.13
2019-01-21T21:50:30.644Z,66.33
2019-01-21T21:53:00.063Z,58.33
2019-01-21T21:55:29.842Z,61.83
2019-01-21T21:57:59.215Z,61.60
2019-01-21T22:00:29.467Z,64.40
2019-01-21T22:02:58.951Z,66.67
2019-01-21T22:05:28.368Z,61.97
2019-01-21T22:07:57.755Z,63.87
2019-01-21T22:10:28.719Z,63.23
2019-01-21T22:12:58.203Z,60.00
2019-01-21T22:15:27.709Z,52.93
2019-01-21T22:17:57.128Z,61.90
2019-01-21T22:20:26.627Z,56.07
2019-01-21T22:22:55.987Z,54.40
2019-01-21T22:25:25.488Z,53.77
2019-01-21T22:27:54.894Z,51.70
2019-01-21T22:30:28.026Z,51.50
2019-01-21T22:32:57.411Z,54.97
2019-01-21T22:35:26.868Z,58.63
2019-01-21T22:37:56.309Z,59.63
2019-01-21T22:40:25.693Z,59.57
2019-01-21T22:42:55.043Z,55.80
2019-01-21T22:45:24.465Z,57.00
2019-01-21T22:47:53.818Z,61.43
2019-01-21T22:50:23.286Z,55.70
2019-01-21T22:52:52.632Z,57.87
2019-01-21T22:55:22.056Z,51.83
2019-01-21T22:57:51.456Z,58.20
2019-01-21T23:00:56.929Z,58.03
2019-01-21T23:03:27.354Z,55.40
2019-01-21T23:05:56.680Z,54.90
2019-01-21T23:08:26.044Z,59.13
2019-01-21T23:10:55.453Z,60.33
2019-01-21T23:13:24.839Z,54.13
2019-01-21T23:15:54.233Z,68.17
2019-01-21T23:18:23.687Z,58.37
2019-01-21T23:20:53.210Z,58.50
2019-01-21T23:23:22.585Z,61.50
2019-01-21T23:25:51.903Z,67.93
2019-01-21T23:28:21.260Z,64.57
2019-01-21T23:30:50.606Z,63.67
2019-01-21T23:33:20.248Z,67.13
2019-01-21T23:35:49.646Z,60.57
2019-01-21T23:38:18.981Z,63.87
2019-01-21T23:40:48.315Z,57.23
2019-01-21T23:43:17.651Z,61.37
2019-01-21T23:45:46.990Z,60.50
2019-01-21T23:48:16.356Z,61.20
2019-01-21T23:50:45.706Z,60.93
2019-01-21T23:53:15.073Z,55.27
2019-01-21T23:55:44.428Z,55.03
2019-01-21T23:58:13.765Z,54.63
